createdAt,value
2023-01-08T00:02:17.371Z,1.81
2023-01-08T00:04:50.624Z,1.88
2023-01-08T00:07:23.864Z,1.68
2023-01-08T00:09:58.595Z,1.84
2023-01-08T00:12:32.631Z,1.87
2023-01-08T00:15:08.011Z,1.89
2023-01-08T00:17:41.626Z,1.68
2023-01-08T00:20:14.903Z,1.67
2023-01-08T00:22:49.791Z,1.64
2023-01-08T00:25:24.817Z,1.52
2023-01-08T00:27:58.017Z,1.43
2023-01-08T00:30:31.349Z,1.33
2023-01-08T00:33:05.164Z,1.25
2023-01-08T00:35:38.765Z,0.94
2023-01-08T00:38:11.898Z,1.06
2023-01-08T00:40:46.884Z,0.93
2023-01-08T00:43:20.271Z,1.04
2023-01-08T00:45:54.044Z,1.07
2023-01-08T00:48:27.079Z,1.04
2023-01-08T00:51:03.384Z,1.06
2023-01-08T00:53:38.108Z,0.99
2023-01-08T00:56:13.376Z,1.11
2023-01-08T00:58:47.099Z,1.18
2023-01-08T01:01:20.470Z,1.05
2023-01-08T01:03:53.768Z,1.15
2023-01-08T01:06:27.016Z,1.21
2023-01-08T01:09:00.469Z,0.93
2023-01-08T01:11:35.765Z,0.86
2023-01-08T01:14:10.816Z,0.91
2023-01-08T01:16:44.749Z,1.15
2023-01-08T01:19:18.632Z,0.86
2023-01-08T01:21:52.053Z,0.88
2023-01-08T01:24:26.311Z,0.97
2023-01-08T01:27:01.327Z,1.03
2023-01-08T01:29:34.689Z,0.93
2023-01-08T01:32:08.341Z,1.01
2023-01-08T01:34:41.548Z,0.97
2023-01-08T01:37:15.339Z,0.90
2023-01-08T01:39:48.557Z,0.82
2023-01-08T01:42:41.549Z,0.65
2023-01-08T01:45:18.025Z,0.77
2023-01-08T01:47:55.779Z,0.69
2023-01-08T01:50:31.734Z,0.61
2023-01-08T01:53:10.164Z,0.79
2023-01-08T01:55:45.077Z,0.71
2023-01-08T01:58:23.966Z,0.64
2023-01-08T02:00:59.949Z,0.35
2023-01-08T02:03:37.816Z,0.57
2023-01-08T02:06:21.267Z,0.59
2023-01-08T02:09:02.545Z,0.63
2023-01-08T02:11:43.772Z,0.57
2023-01-08T02:14:24.104Z,0.62
2023-01-08T02:17:03.802Z,0.38
2023-01-08T02:19:44.008Z,0.02
2023-01-08T02:22:33.874Z,0.44
2023-01-08T02:25:13.859Z,0.44
2023-01-08T02:27:52.319Z,0.21
2023-01-08T02:30:26.448Z,0.25
2023-01-08T02:33:00.262Z,0.17
2023-01-08T02:35:41.330Z,0.30
2023-01-08T02:38:17.799Z,0.06
2023-01-08T02:40:58.365Z,0.11
2023-01-08T02:43:42.387Z,0.08
2023-01-08T02:46:24.717Z,0.02
2023-01-08T02:49:03.912Z,0.12
2023-01-08T02:51:42.271Z,0.36
2023-01-08T02:54:19.311Z,0.38
2023-01-08T02:56:58.316Z,0.58
2023-01-08T02:59:33.853Z,0.43
2023-01-08T03:02:09.075Z,0.20
2023-01-08T03:04:53.288Z,0.26
2023-01-08T03:07:26.457Z,0.23
2023-01-08T03:10:00.679Z,0.15
2023-01-08T03:12:46.364Z,0.10
2023-01-08T03:15:26.759Z,0.03
2023-01-08T03:18:05.859Z,-0.32
2023-01-08T03:20:40.348Z,0.17
2023-01-08T03:23:15.953Z,-0.05
2023-01-08T03:25:49.528Z,-0.19
2023-01-08T03:28:30.257Z,0.10
2023-01-08T03:31:07.436Z,0.13
2023-01-08T03:33:41.583Z,0.10
2023-01-08T03:36:17.889Z,0.06
2023-01-08T03:38:55.572Z,0.01
2023-01-08T03:41:32.481Z,0.04
2023-01-08T03:44:06.320Z,-0.01
2023-01-08T03:46:48.363Z,-0.11
2023-01-08T03:49:24.102Z,-0.20
2023-01-08T03:51:57.843Z,-0.25
2023-01-08T03:54:33.784Z,-0.23
2023-01-08T03:57:06.942Z,-0.41
2023-01-08T03:59:40.248Z,-0.26
2023-01-08T04:02:15.265Z,-0.21
2023-01-08T04:04:48.951Z,-0.19
2023-01-08T04:07:22.898Z,-0.20
2023-01-08T04:09:56.128Z,-0.19
2023-01-08T04:12:30.210Z,-0.24
2023-01-08T04:15:03.688Z,-0.55
2023-01-08T04:17:38.395Z,-0.45
2023-01-08T04:20:12.398Z,-0.27
2023-01-08T04:22:46.260Z,-0.49
2023-01-08T04:25:19.869Z,-0.50
2023-01-08T04:27:53.063Z,-0.38
2023-01-08T04:30:26.287Z,-0.25
2023-01-08T04:33:01.004Z,-0.44
2023-01-08T04:35:34.239Z,-0.56
2023-01-08T04:38:07.625Z,-0.05
2023-01-08T04:40:41.303Z,-0.10
2023-01-08T04:43:14.726Z,0.01
2023-01-08T04:45:47.991Z,0.05
2023-01-08T04:48:22.573Z,-0.08
2023-01-08T04:50:55.919Z,-0.19
2023-01-08T04:53:30.211Z,0.10
2023-01-08T04:56:07.942Z,-0.24
2023-01-08T04:58:41.638Z,-0.20
2023-01-08T05:01:20.149Z,-0.28
2023-01-08T05:03:56.508Z,-0.37
2023-01-08T05:06:31.447Z,-0.27
2023-01-08T05:09:05.097Z,-0.37
2023-01-08T05:11:38.399Z,-0.42
2023-01-08T05:14:12.390Z,-0.39
2023-01-08T05:16:45.919Z,-0.50
2023-01-08T05:19:20.522Z,-0.37
2023-01-08T05:21:54.231Z,-0.33
2023-01-08T05:24:28.624Z,-0.36
2023-01-08T05:27:02.080Z,-0.47
2023-01-08T05:29:35.716Z,-0.34
2023-01-08T05:32:16.238Z,-0.41
2023-01-08T05:34:51.628Z,-0.63
2023-01-08T05:37:24.958Z,-0.59
2023-01-08T05:39:59.057Z,-0.51
2023-01-08T05:42:34.671Z,-0.67
2023-01-08T05:45:09.688Z,-0.60
2023-01-08T05:47:43.018Z,-0.48
2023-01-08T05:50:18.006Z,-0.59
2023-01-08T05:52:51.344Z,-0.77
2023-01-08T05:55:24.587Z,-0.67
2023-01-08T05:58:01.571Z,-0.78
2023-01-08T06:00:35.957Z,-0.67
2023-01-08T06:03:09.422Z,-0.61
2023-01-08T06:05:44.348Z,-0.65
2023-01-08T06:08:17.620Z,-0.56
2023-01-08T06:10:50.884Z,-0.39
2023-01-08T06:13:24.054Z,-0.50
2023-01-08T06:16:00.595Z,-0.51
2023-01-08T06:18:34.034Z,-0.36
2023-01-08T06:21:08.723Z,-0.53
2023-01-08T06:23:41.881Z,-0.41
2023-01-08T06:26:15.468Z,-0.62
2023-01-08T06:28:48.805Z,-0.27
2023-01-08T06:31:22.037Z,-0.16
2023-01-08T06:33:55.251Z,-0.21
2023-01-08T06:36:29.935Z,-0.17
2023-01-08T06:39:03.347Z,-0.15
2023-01-08T06:41:36.740Z,-0.10
2023-01-08T06:44:10.032Z,-0.21
2023-01-08T06:46:43.428Z,-0.21
2023-01-08T06:49:18.077Z,-0.17
2023-01-08T06:51:52.676Z,-0.20
2023-01-08T06:54:25.909Z,-0.08
2023-01-08T06:57:00.048Z,0.03
2023-01-08T06:59:33.391Z,-0.34
2023-01-08T07:02:07.036Z,0.04
2023-01-08T07:04:40.538Z,-0.04
2023-01-08T07:07:16.521Z,-0.20
2023-01-08T07:09:49.789Z,0.04
2023-01-08T07:12:24.102Z,0.25
2023-01-08T07:14:58.390Z,0.36
2023-01-08T07:17:33.663Z,0.31
2023-01-08T07:20:09.690Z,0.25
2023-01-08T07:22:44.315Z,0.39
2023-01-08T07:25:17.862Z,0.51
2023-01-08T07:27:51.878Z,0.62
2023-01-08T07:30:30.263Z,0.59
2023-01-08T07:33:04.277Z,0.81
2023-01-08T07:35:39.051Z,0.82
2023-01-08T07:38:13.674Z,1.06
2023-01-08T07:40:47.131Z,1.03
2023-01-08T07:43:20.639Z,0.97
2023-01-08T07:45:53.818Z,1.11
2023-01-08T07:48:27.029Z,1.23
2023-01-08T07:51:03.315Z,1.34
2023-01-08T07:53:38.774Z,1.51
2023-01-08T07:56:12.582Z,1.80
2023-01-08T07:58:47.358Z,1.93
2023-01-08T08:01:21.080Z,2.12
2023-01-08T08:03:54.453Z,2.07
2023-01-08T08:06:27.712Z,2.32
2023-01-08T08:09:03.926Z,2.54
2023-01-08T08:11:38.525Z,2.68
2023-01-08T08:14:12.538Z,2.84
2023-01-08T08:16:46.117Z,2.96
2023-01-08T08:19:19.193Z,3.12
2023-01-08T08:21:52.676Z,3.29
2023-01-08T08:24:27.252Z,3.43
2023-01-08T08:27:00.545Z,3.50
2023-01-08T08:29:34.461Z,3.59
2023-01-08T08:32:07.983Z,3.66
2023-01-08T08:34:41.293Z,3.81
2023-01-08T08:37:14.737Z,3.98
2023-01-08T08:39:49.420Z,3.99
2023-01-08T08:42:22.704Z,4.18
2023-01-08T08:44:55.973Z,4.29
2023-01-08T08:47:29.437Z,4.35
2023-01-08T08:50:03.283Z,4.50
2023-01-08T08:52:37.639Z,4.66
2023-01-08T08:55:15.204Z,4.78
2023-01-08T08:57:49.380Z,4.91
2023-01-08T09:00:23.499Z,4.99
2023-01-08T09:02:56.982Z,5.06
2023-01-08T09:05:30.569Z,5.14
2023-01-08T09:08:04.115Z,5.21
2023-01-08T09:10:41.548Z,5.27
2023-01-08T09:13:15.223Z,5.31
2023-01-08T09:15:49.006Z,5.39
2023-01-08T09:18:22.556Z,5.43
2023-01-08T09:20:56.095Z,5.48
2023-01-08T09:23:29.478Z,5.47
2023-01-08T09:26:05.700Z,5.48
2023-01-08T09:28:39.234Z,5.56
2023-01-08T09:31:12.746Z,5.60
2023-01-08T09:33:48.318Z,5.65
2023-01-08T09:36:21.826Z,5.72
2023-01-08T09:38:55.222Z,5.72
2023-01-08T09:41:34.068Z,5.70
2023-01-08T09:44:08.384Z,5.89
2023-01-08T09:46:42.765Z,5.87
2023-01-08T09:49:22.622Z,5.97
2023-01-08T09:51:56.571Z,6.02
2023-01-08T09:54:29.748Z,6.08
2023-01-08T09:57:04.854Z,6.10
2023-01-08T09:59:39.358Z,6.15
2023-01-08T10:02:15.603Z,6.18
2023-01-08T10:04:55.541Z,6.23
2023-01-08T10:07:31.297Z,6.30
2023-01-08T10:10:04.932Z,6.42
2023-01-08T10:12:40.973Z,6.46
2023-01-08T10:15:17.296Z,6.54
2023-01-08T10:17:59.018Z,6.66
2023-01-08T10:20:33.966Z,6.68
2023-01-08T10:23:11.925Z,6.75
2023-01-08T10:25:52.375Z,6.80
2023-01-08T10:28:28.694Z,6.80
2023-01-08T10:31:17.637Z,6.83
2023-01-08T10:33:51.809Z,6.85
2023-01-08T10:36:27.654Z,6.78
2023-01-08T10:39:03.288Z,7.09
2023-01-08T10:41:40.719Z,7.12
2023-01-08T10:44:19.079Z,7.18
2023-01-08T10:46:57.000Z,7.21
2023-01-08T10:49:35.183Z,7.14
2023-01-08T10:52:24.910Z,7.26
2023-01-08T10:54:59.632Z,7.12
2023-01-08T10:57:34.487Z,7.31
2023-01-08T11:00:27.427Z,7.29
2023-01-08T11:03:02.982Z,7.32
2023-01-08T11:05:38.638Z,7.37
2023-01-08T11:08:17.937Z,7.54
2023-01-08T11:10:56.152Z,7.53
2023-01-08T11:13:31.058Z,7.54
2023-01-08T11:16:08.454Z,7.55
2023-01-08T11:18:47.180Z,7.57
2023-01-08T11:21:24.862Z,7.55
2023-01-08T11:24:16.460Z,7.59
2023-01-08T11:26:54.396Z,7.67
2023-01-08T11:29:37.393Z,7.64
2023-01-08T11:32:28.114Z,7.65
2023-01-08T11:35:11.113Z,7.65
2023-01-08T11:37:51.484Z,7.70
2023-01-08T11:40:39.228Z,7.70
2023-01-08T11:43:26.348Z,7.66
2023-01-08T11:46:26.313Z,7.73
2023-01-08T11:49:39.447Z,7.80
2023-01-08T11:52:28.519Z,7.79
2023-01-08T11:55:16.863Z,7.79
2023-01-08T11:58:02.409Z,7.78
2023-01-08T12:01:14.473Z,7.79
2023-01-08T12:03:52.741Z,7.80
2023-01-08T12:06:37.799Z,7.91
2023-01-08T12:09:17.820Z,7.93
2023-01-08T12:11:57.433Z,8.02
2023-01-08T12:14:47.193Z,7.89
2023-01-08T12:17:46.479Z,7.84
2023-01-08T12:20:29.657Z,7.96
2023-01-08T12:23:16.174Z,7.97
2023-01-08T12:26:00.562Z,7.93
2023-01-08T12:28:55.107Z,7.91
2023-01-08T12:32:02.994Z,7.89
2023-01-08T12:34:48.947Z,7.75
2023-01-08T12:37:28.595Z,7.89
2023-01-08T12:40:13.257Z,7.85
2023-01-08T12:42:59.920Z,7.90
2023-01-08T12:45:38.735Z,7.81
2023-01-08T12:48:16.715Z,7.90
2023-01-08T12:51:00.588Z,7.94
2023-01-08T12:53:44.821Z,7.89
2023-01-08T12:56:31.982Z,7.91
2023-01-08T12:59:19.967Z,7.98
2023-01-08T13:01:59.895Z,7.88
2023-01-08T13:04:41.689Z,7.88
2023-01-08T13:07:21.569Z,7.90
2023-01-08T13:09:57.233Z,7.81
2023-01-08T13:12:37.386Z,7.79
2023-01-08T13:15:21.710Z,7.94
2023-01-08T13:17:58.276Z,7.95
2023-01-08T13:20:33.280Z,7.93
2023-01-08T13:23:07.151Z,8.12
2023-01-08T13:25:40.602Z,8.00
2023-01-08T13:28:29.479Z,7.94
2023-01-08T13:31:11.020Z,7.99
2023-01-08T13:33:47.166Z,8.01
2023-01-08T13:36:23.221Z,7.90
2023-01-08T13:39:23.289Z,7.98
2023-01-08T13:42:03.560Z,8.10
2023-01-08T13:44:42.583Z,8.01
2023-01-08T13:47:23.447Z,7.90
2023-01-08T13:49:58.028Z,7.89
2023-01-08T13:52:40.407Z,7.83
2023-01-08T13:55:17.932Z,7.76
2023-01-08T13:57:57.154Z,7.72
2023-01-08T14:00:44.765Z,7.64
2023-01-08T14:03:26.422Z,7.62
2023-01-08T14:06:16.494Z,7.54
2023-01-08T14:08:54.348Z,7.48
2023-01-08T14:11:31.963Z,7.48
2023-01-08T14:14:06.469Z,7.42
2023-01-08T14:16:42.669Z,7.40
2023-01-08T14:19:18.939Z,7.37
2023-01-08T14:21:54.792Z,7.39
2023-01-08T14:24:28.827Z,7.31
2023-01-08T14:27:02.491Z,7.28
2023-01-08T14:29:36.644Z,7.24
2023-01-08T14:32:18.149Z,7.18
2023-01-08T14:34:53.173Z,7.15
2023-01-08T14:37:26.738Z,7.17
2023-01-08T14:40:00.745Z,7.10
2023-01-08T14:42:44.386Z,7.06
2023-01-08T14:45:21.424Z,7.08
2023-01-08T14:47:59.864Z,7.05
2023-01-08T14:50:36.731Z,6.88
2023-01-08T14:53:20.586Z,6.96
2023-01-08T14:56:05.892Z,6.91
2023-01-08T14:58:42.684Z,6.49
2023-01-08T15:01:18.090Z,6.71
2023-01-08T15:04:04.821Z,6.53
2023-01-08T15:06:38.232Z,6.69
2023-01-08T15:09:22.632Z,6.64
2023-01-08T15:12:00.904Z,6.65
2023-01-08T15:14:37.348Z,6.59
2023-01-08T15:17:17.051Z,6.55
2023-01-08T15:19:54.593Z,6.53
2023-01-08T15:22:32.873Z,6.14
2023-01-08T15:25:08.733Z,6.26
2023-01-08T15:27:43.058Z,6.29
2023-01-08T15:30:27.484Z,6.33
2023-01-08T15:33:09.725Z,6.29
2023-01-08T15:35:44.636Z,6.20
2023-01-08T15:38:20.795Z,6.17
2023-01-08T15:40:55.991Z,6.14
2023-01-08T15:43:28.531Z,6.11
2023-01-08T15:46:02.138Z,6.04
2023-01-08T15:48:35.776Z,6.02
2023-01-08T15:51:11.481Z,5.94
2023-01-08T15:53:44.929Z,5.92
2023-01-08T15:56:18.394Z,5.86
2023-01-08T15:58:52.964Z,5.85
2023-01-08T16:01:28.869Z,5.83
2023-01-08T16:04:02.777Z,5.80
2023-01-08T16:06:37.378Z,5.74
2023-01-08T16:09:10.714Z,5.71
2023-01-08T16:11:44.715Z,5.72
2023-01-08T16:14:18.279Z,5.70
2023-01-08T16:16:52.482Z,5.66
2023-01-08T16:19:27.725Z,5.63
2023-01-08T16:22:02.374Z,5.58
2023-01-08T16:24:35.909Z,5.56
2023-01-08T16:27:10.008Z,5.52
2023-01-08T16:29:43.298Z,5.50
2023-01-08T16:32:16.837Z,5.44
2023-01-08T16:34:50.809Z,5.41
2023-01-08T16:37:25.794Z,5.38
2023-01-08T16:40:00.315Z,5.35
2023-01-08T16:42:34.119Z,5.33
2023-01-08T16:45:09.194Z,5.28
2023-01-08T16:47:42.755Z,5.21
2023-01-08T16:50:16.520Z,5.16
2023-01-08T16:52:51.503Z,4.67
2023-01-08T16:55:24.790Z,5.05
2023-01-08T16:57:58.023Z,5.04
2023-01-08T17:00:31.425Z,4.93
2023-01-08T17:03:06.013Z,4.98
2023-01-08T17:05:39.546Z,4.94
2023-01-08T17:08:16.395Z,4.93
2023-01-08T17:10:49.920Z,4.86
2023-01-08T17:13:23.619Z,4.68
2023-01-08T17:15:59.761Z,4.63
2023-01-08T17:18:36.419Z,4.53
2023-01-08T17:21:12.342Z,4.30
2023-01-08T17:23:47.719Z,4.39
2023-01-08T17:26:21.163Z,4.32
2023-01-08T17:28:55.597Z,4.35
2023-01-08T17:31:28.950Z,4.27
2023-01-08T17:34:03.217Z,4.22
2023-01-08T17:36:47.983Z,4.14
2023-01-08T17:39:22.742Z,3.99
2023-01-08T17:42:13.639Z,4.06
2023-01-08T17:44:47.183Z,4.03
2023-01-08T17:47:20.999Z,3.96
2023-01-08T17:49:54.476Z,3.93
2023-01-08T17:52:27.889Z,3.78
2023-01-08T17:55:03.175Z,3.82
2023-01-08T17:57:36.891Z,3.76
2023-01-08T18:00:11.598Z,3.66
2023-01-08T18:02:45.528Z,3.68
2023-01-08T18:05:19.250Z,3.52
2023-01-08T18:07:52.709Z,3.46
2023-01-08T18:10:27.547Z,3.48
2023-01-08T18:13:01.503Z,3.48
2023-01-08T18:15:38.548Z,3.55
2023-01-08T18:18:11.902Z,3.41
2023-01-08T18:20:45.255Z,3.51
2023-01-08T18:23:18.575Z,3.34
2023-01-08T18:26:05.136Z,3.27
2023-01-08T18:28:38.324Z,3.41
2023-01-08T18:31:12.855Z,3.28
2023-01-08T18:33:46.207Z,3.28
2023-01-08T18:36:20.605Z,3.27
2023-01-08T18:38:55.822Z,3.19
2023-01-08T18:41:47.967Z,3.18
2023-01-08T18:44:21.821Z,3.06
2023-01-08T18:46:56.026Z,3.22
2023-01-08T18:49:29.499Z,3.08
2023-01-08T18:52:02.661Z,3.04
2023-01-08T18:54:35.951Z,2.99
2023-01-08T18:57:11.027Z,2.99
2023-01-08T18:59:44.337Z,3.00
2023-01-08T19:02:21.370Z,2.82
2023-01-08T19:04:54.888Z,2.68
2023-01-08T19:07:28.435Z,2.79
2023-01-08T19:10:02.350Z,2.76
2023-01-08T19:12:39.259Z,2.69
2023-01-08T19:15:13.825Z,2.72
2023-01-08T19:17:47.221Z,2.64
2023-01-08T19:20:20.769Z,2.56
2023-01-08T19:22:54.389Z,2.54
2023-01-08T19:25:28.255Z,2.40
2023-01-08T19:28:03.267Z,2.46
2023-01-08T19:30:38.123Z,2.36
2023-01-08T19:33:13.247Z,2.43
2023-01-08T19:35:46.410Z,2.52
2023-01-08T19:38:20.068Z,2.47
2023-01-08T19:40:53.285Z,2.38
2023-01-08T19:43:42.325Z,2.28
2023-01-08T19:46:18.378Z,2.30
2023-01-08T19:48:52.066Z,2.28
2023-01-08T19:51:26.123Z,2.15
2023-01-08T19:54:01.159Z,2.25
2023-01-08T19:56:35.460Z,2.18
2023-01-08T19:59:11.414Z,2.15
2023-01-08T20:01:45.724Z,2.09
2023-01-08T20:04:20.263Z,2.12
2023-01-08T20:06:55.275Z,2.05
2023-01-08T20:09:30.257Z,1.95
2023-01-08T20:12:07.105Z,1.97
2023-01-08T20:14:43.185Z,1.94
2023-01-08T20:17:19.707Z,2.04
2023-01-08T20:19:55.606Z,2.06
2023-01-08T20:22:31.500Z,2.01
2023-01-08T20:25:07.613Z,2.03
2023-01-08T20:27:41.469Z,1.79
2023-01-08T20:30:16.561Z,1.79
2023-01-08T20:35:24.389Z,1.75
2023-01-08T20:37:57.687Z,1.72
2023-01-08T20:40:31.221Z,1.86
2023-01-08T20:43:04.938Z,1.68
2023-01-08T20:45:42.671Z,1.90
2023-01-08T20:48:16.047Z,1.70
2023-01-08T20:50:55.941Z,1.67
2023-01-08T20:53:30.360Z,1.78
2023-01-08T20:56:05.828Z,1.86
2023-01-08T20:58:41.005Z,1.56
2023-01-08T21:01:18.145Z,1.20
2023-01-08T21:03:55.291Z,1.65
2023-01-08T21:06:30.527Z,1.65
2023-01-08T21:09:07.703Z,1.52
2023-01-08T21:11:42.367Z,1.54
2023-01-08T21:14:16.425Z,1.42
2023-01-08T21:16:51.382Z,1.38
2023-01-08T21:19:24.522Z,1.35
2023-01-08T21:21:57.829Z,1.26
2023-01-08T21:24:31.117Z,1.27
2023-01-08T21:27:04.541Z,1.28
2023-01-08T21:29:38.729Z,1.32
2023-01-08T21:32:14.139Z,1.24
2023-01-08T21:34:47.431Z,1.17
2023-01-08T21:37:20.940Z,1.11
2023-01-08T21:39:54.259Z,1.04
2023-01-08T21:42:44.957Z,0.97
2023-01-08T21:45:27.735Z,0.95
2023-01-08T21:48:02.715Z,0.98
2023-01-08T21:50:36.411Z,1.04
2023-01-08T21:53:27.640Z,1.05
2023-01-08T21:56:00.992Z,0.94
2023-01-08T21:58:35.014Z,1.00
2023-01-08T22:01:09.899Z,0.92
2023-01-08T22:03:58.260Z,0.66
2023-01-08T22:06:31.408Z,0.96
2023-01-08T22:09:05.305Z,0.96
2023-01-08T22:11:39.089Z,0.92
2023-01-08T22:14:13.057Z,0.86
2023-01-08T22:16:46.749Z,0.96
2023-01-08T22:19:21.252Z,0.98
2023-01-08T22:21:55.997Z,0.94
2023-01-08T22:24:29.488Z,0.94
2023-01-08T22:27:03.073Z,0.94
2023-01-08T22:29:36.664Z,0.79
2023-01-08T22:32:09.999Z,0.67
2023-01-08T22:34:44.556Z,0.92
2023-01-08T22:37:21.604Z,1.00
2023-01-08T22:39:55.280Z,0.90
2023-01-08T22:42:28.911Z,0.80
2023-01-08T22:45:02.132Z,0.67
2023-01-08T22:47:35.533Z,0.88
2023-01-08T22:50:11.584Z,0.82
2023-01-08T22:52:45.004Z,0.60
2023-01-08T22:55:19.075Z,0.73
2023-01-08T22:57:53.271Z,0.71
2023-01-08T23:00:26.888Z,0.51
2023-01-08T23:03:00.278Z,0.74
2023-01-08T23:05:35.043Z,0.54
2023-01-08T23:08:09.001Z,0.57
2023-01-08T23:10:42.607Z,0.61
2023-01-08T23:13:16.923Z,0.51
2023-01-08T23:15:50.484Z,0.45
2023-01-08T23:18:23.777Z,0.36
2023-01-08T23:21:03.986Z,0.47
2023-01-08T23:23:37.992Z,0.38
2023-01-08T23:26:14.240Z,0.50
2023-01-08T23:28:48.116Z,0.38
2023-01-08T23:31:23.973Z,0.24
2023-01-08T23:33:58.182Z,0.26
2023-01-08T23:36:33.345Z,0.15
2023-01-08T23:39:06.987Z,0.17
2023-01-08T23:41:40.405Z,0.33
2023-01-08T23:44:15.929Z,0.06
2023-01-08T23:46:49.185Z,0.09
2023-01-08T23:49:22.505Z,-0.01
2023-01-08T23:51:57.160Z,-0.04
2023-01-08T23:54:30.869Z,0.02
2023-01-08T23:57:06.207Z,-0.12
2023-01-08T23:59:39.469Z,0.02
